Time;durP1;ratioP1;P1;durP2;ratioP2;P2;SDS_P1;SDS_P2;PMS_P1;PMS_P2;Temp;Humidity;BMP_temperature;BMP_pressure;BME280_temperature;BME280_humidity;BME280_pressure;Samples;Min_cycle;Max_cycle;Signal;HPM_P1;HPM_P2
2022/01/14 00:01:02;;;;;;;27.08;15.80;;;-1.00;75.00;;;;;;4978969;28;20196;-73
2022/01/14 00:03:31;;;;;;;26.52;13.95;;;-1.00;74.50;;;;;;4992269;28;20212;-74
2022/01/14 00:06:04;;;;;;;19.23;12.43;;;-1.00;74.30;;;;;;4991325;28;20323;-73
2022/01/14 00:08:44;;;;;;;25.13;15.02;;;-1.00;74.20;;;;;;4991117;28;20562;-74
2022/01/14 00:11:20;;;;;;;26.38;14.27;;;-1.00;74.10;;;;;;4986026;28;20186;-73
2022/01/14 00:13:54;;;;;;;27.85;14.00;;;-1.10;74.20;;;;;;4974288;28;20248;-74
2022/01/14 00:16:23;;;;;;;20.75;12.95;;;-1.00;74.10;;;;;;4980703;28;20196;-74
2022/01/14 00:18:52;;;;;;;26.45;15.15;;;-1.00;75.00;;;;;;4993521;28;20220;-74
2022/01/14 00:21:20;;;;;;;23.17;13.13;;;-1.00;74.50;;;;;;4992106;28;20251;-74
2022/01/14 00:24:03;;;;;;;24.63;12.85;;;-1.00;74.50;;;;;;4993355;28;20605;-74
2022/01/14 00:32:19;;;;;;;24.15;14.75;;;-1.10;74.20;;;;;;4990158;28;20243;-74
2022/01/14 00:34:48;;;;;;;28.85;16.85;;;-1.20;74.00;;;;;;4993174;28;20232;-75
2022/01/14 00:37:19;;;;;;;23.63;13.65;;;-1.20;74.50;;;;;;4975302;28;20190;-74
2022/01/14 00:39:52;;;;;;;26.00;14.80;;;-1.40;74.80;;;;;;4973516;28;20194;-72
2022/01/14 00:42:24;;;;;;;22.95;14.15;;;-1.50;75.80;;;;;;4990232;28;20239;-74
2022/01/14 00:44:52;;;;;;;24.05;14.20;;;-1.50;76.60;;;;;;4979370;28;20194;-74
2022/01/14 00:47:19;;;;;;;23.65;14.75;;;-1.50;77.10;;;;;;4973240;28;20205;-74
2022/01/14 00:49:52;;;;;;;26.73;13.50;;;-1.60;76.90;;;;;;4984779;28;20276;-73
2022/01/14 00:52:21;;;;;;;26.15;14.70;;;-1.60;77.20;;;;;;4992890;28;20307;-74
2022/01/14 00:54:48;;;;;;;28.60;15.85;;;-1.60;77.80;;;;;;4980948;28;20197;-73
2022/01/14 00:59:14;;;;;;;24.95;15.52;;;-1.60;78.10;;;;;;4978687;28;20185;-74
2022/01/14 01:00:22;;;;;;;29.33;16.30;;;-1.70;78.10;;;;;;4992460;28;20531;-73
2022/01/14 01:02:50;;;;;;;24.50;14.23;;;-1.60;78.30;;;;;;4982441;28;20295;-74
2022/01/14 01:05:20;;;;;;;30.98;15.35;;;-1.60;78.20;;;;;;4973149;28;20248;-74
2022/01/14 01:08:02;;;;;;;28.20;15.90;;;-1.60;77.70;;;;;;4981311;28;20600;-74
2022/01/14 01:10:30;;;;;;;23.20;14.82;;;-1.60;77.00;;;;;;4992630;28;20275;-73
2022/01/14 01:13:05;;;;;;;20.20;14.18;;;-1.50;77.20;;;;;;4978944;28;20221;-73
2022/01/14 01:15:33;;;;;;;28.92;14.57;;;-1.50;77.30;;;;;;4972966;28;20711;-74
2022/01/14 01:18:01;;;;;;;27.30;15.35;;;-1.50;76.90;;;;;;4984902;28;20557;-74
2022/01/14 01:20:29;;;;;;;28.58;15.43;;;-1.60;77.10;;;;;;4992096;28;20193;-73
2022/01/14 01:22:57;;;;;;;26.48;13.15;;;-1.70;77.40;;;;;;4983418;28;20257;-74
2022/01/14 01:25:26;;;;;;;24.83;13.75;;;-1.80;78.20;;;;;;4988127;28;20197;-73
2022/01/14 01:27:59;;;;;;;27.35;13.93;;;-1.80;79.00;;;;;;4992126;28;20189;-74
2022/01/14 01:30:50;;;;;;;27.65;13.23;;;-1.90;78.60;;;;;;4981342;28;20193;-73
2022/01/14 01:33:19;;;;;;;25.27;14.93;;;-2.10;80.20;;;;;;4972611;28;20223;-74
2022/01/14 01:35:50;;;;;;;24.67;14.35;;;-2.20;81.40;;;;;;4984635;28;20201;-73
2022/01/14 01:38:19;;;;;;;23.85;13.05;;;-2.20;82.10;;;;;;4991897;28;20200;-74
2022/01/14 01:40:55;;;;;;;21.70;12.80;;;-2.20;82.90;;;;;;4979766;28;20189;-73
2022/01/14 01:43:30;;;;;;;26.80;14.23;;;-2.10;82.50;;;;;;4972818;28;20245;-74
2022/01/14 01:45:59;;;;;;;22.92;12.73;;;-2.00;82.30;;;;;;4973276;28;20200;-73
2022/01/14 01:48:26;;;;;;;18.33;11.93;;;-1.90;82.10;;;;;;4972671;28;20193;-73
2022/01/14 01:50:58;;;;;;;26.33;14.20;;;-1.90;81.90;;;;;;4986719;28;20199;-74
2022/01/14 01:53:39;;;;;;;18.88;12.60;;;-1.90;81.50;;;;;;4991778;28;20228;-74
2022/01/14 01:56:14;;;;;;;20.73;12.13;;;-1.80;81.60;;;;;;4975893;28;20197;-74
2022/01/14 01:58:44;;;;;;;18.80;10.60;;;-1.80;81.70;;;;;;4975143;28;20234;-73
2022/01/14 02:01:13;;;;;;;20.83;13.07;;;-1.70;81.70;;;;;;4991995;28;20212;-74
2022/01/14 02:03:42;;;;;;;23.98;12.23;;;-1.60;81.10;;;;;;4995728;28;20209;-73
2022/01/14 02:06:16;;;;;;;26.75;13.50;;;-1.60;80.10;;;;;;4980424;28;20381;-74
2022/01/14 02:08:46;;;;;;;22.48;12.50;;;-1.60;79.00;;;;;;4976277;28;20193;-73
2022/01/14 02:11:16;;;;;;;18.65;12.40;;;-1.60;78.50;;;;;;4990697;28;20640;-73
2022/01/14 02:13:44;;;;;;;20.48;12.55;;;-1.60;78.60;;;;;;4995860;28;20307;-73
2022/01/14 02:16:30;;;;;;;27.50;13.18;;;-1.50;78.70;;;;;;4981516;28;20212;-73
2022/01/14 02:19:23;;;;;;;20.67;12.90;;;-1.50;78.20;;;;;;4986153;28;20275;-74
2022/01/14 02:22:10;;;;;;;23.15;13.30;;;-1.40;78.30;;;;;;4995271;28;20255;-73
2022/01/14 02:24:58;;;;;;;18.42;11.20;;;-1.30;78.50;;;;;;4980182;28;20556;-73
2022/01/14 02:27:27;;;;;;;18.70;12.20;;;-1.40;78.60;;;;;;4976162;28;20240;-73
2022/01/14 02:29:54;;;;;;;19.38;12.07;;;-1.40;79.20;;;;;;4992229;28;20197;-74
2022/01/14 02:32:26;;;;;;;18.40;11.98;;;-1.30;78.50;;;;;;4995369;28;20308;-73
2022/01/14 02:34:54;;;;;;;21.73;12.18;;;-1.40;78.30;;;;;;4978947;28;20245;-74
2022/01/14 02:37:37;;;;;;;23.70;13.27;;;-1.40;78.40;;;;;;4975913;28;20654;-74
2022/01/14 02:40:06;;;;;;;19.27;11.32;;;-1.40;78.60;;;;;;4992420;28;20674;-74
2022/01/14 02:42:33;;;;;;;19.10;11.82;;;-1.40;77.70;;;;;;4995188;28;20201;-74
2022/01/14 02:45:05;;;;;;;26.92;14.13;;;-1.40;78.10;;;;;;4978953;28;20197;-73
2022/01/14 02:47:32;;;;;;;22.67;12.40;;;-1.40;78.20;;;;;;4989815;28;20607;-75
2022/01/14 02:49:59;;;;;;;18.38;12.50;;;-1.40;77.70;;;;;;4995015;28;20239;-74
2022/01/14 02:52:41;;;;;;;19.70;11.50;;;-1.40;77.50;;;;;;4982579;28;21570;-74
2022/01/14 02:55:18;;;;;;;19.73;11.50;;;-1.40;77.20;;;;;;4974747;28;20194;-73
2022/01/14 02:57:48;;;;;;;21.58;11.43;;;-1.40;77.00;;;;;;4990040;28;20651;-74
2022/01/14 03:00:26;;;;;;;22.38;11.68;;;-1.40;76.90;;;;;;4995018;28;20655;-74
2022/01/14 03:03:01;;;;;;;21.50;10.60;;;-1.40;76.60;;;;;;4978978;28;20675;-74
2022/01/14 03:05:37;;;;;;;21.67;11.27;;;-1.40;75.90;;;;;;4975258;28;20307;-74
2022/01/14 03:08:07;;;;;;;18.20;10.32;;;-1.40;76.10;;;;;;4991284;28;20197;-74
2022/01/14 03:10:44;;;;;;;16.80;10.45;;;-1.40;76.30;;;;;;4994659;28;20209;-74
2022/01/14 03:13:12;;;;;;;18.75;12.45;;;-1.40;76.20;;;;;;4977748;28;20308;-74
2022/01/14 03:15:42;;;;;;;22.25;11.98;;;-1.40;76.20;;;;;;4989709;28;20200;-74
2022/01/14 03:18:17;;;;;;;18.50;10.93;;;-1.40;76.50;;;;;;4994419;28;20193;-74
2022/01/14 03:20:52;;;;;;;19.63;11.77;;;-1.40;76.70;;;;;;4980384;28;20189;-73
2022/01/14 03:23:21;;;;;;;17.88;10.30;;;-1.40;76.90;;;;;;4994157;28;20203;-74
2022/01/14 03:25:52;;;;;;;19.48;11.90;;;-1.30;77.20;;;;;;4994086;28;20306;-74
2022/01/14 03:28:22;;;;;;;18.70;12.88;;;-1.30;77.20;;;;;;4994503;28;20197;-74
2022/01/14 03:30:51;;;;;;;23.95;11.70;;;-1.30;76.90;;;;;;4993868;28;20710;-73
2022/01/14 03:33:24;;;;;;;19.85;11.85;;;-1.30;76.00;;;;;;4994385;28;20323;-73
2022/01/14 03:35:57;;;;;;;28.77;15.02;;;-1.30;76.20;;;;;;4994090;28;20196;-74
2022/01/14 03:38:29;;;;;;;22.85;12.20;;;-1.40;76.00;;;;;;4994236;28;20204;-73
2022/01/14 03:40:58;;;;;;;21.40;14.55;;;-1.40;75.80;;;;;;4993794;28;20635;-75
2022/01/14 03:43:26;;;;;;;25.77;11.48;;;-1.50;74.40;;;;;;4993860;28;20243;-74
2022/01/14 03:46:02;;;;;;;18.88;10.50;;;-1.60;74.40;;;;;;4993894;28;20197;-74
2022/01/14 03:48:31;;;;;;;19.42;11.93;;;-1.70;74.60;;;;;;4993526;28;20557;-73
2022/01/14 03:50:59;;;;;;;22.15;11.55;;;-1.70;74.60;;;;;;4993838;28;20203;-73
2022/01/14 03:53:28;;;;;;;18.52;10.18;;;-1.80;74.80;;;;;;4993321;28;20216;-74
2022/01/14 03:55:56;;;;;;;18.55;12.77;;;-1.80;75.00;;;;;;4993722;28;20192;-76
2022/01/14 03:58:23;;;;;;;20.25;12.15;;;-1.70;75.20;;;;;;4992978;28;20193;-73
2022/01/14 04:00:50;;;;;;;26.58;13.40;;;-1.70;75.20;;;;;;4993166;28;20189;-74
2022/01/14 04:03:19;;;;;;;20.95;12.65;;;-1.80;75.40;;;;;;4993827;28;20658;-72
2022/01/14 04:05:55;;;;;;;25.58;13.68;;;-1.80;75.10;;;;;;4993391;28;20185;-74
2022/01/14 04:08:32;;;;;;;23.30;13.73;;;-1.80;75.70;;;;;;4993540;28;20252;-74
2022/01/14 04:11:03;;;;;;;22.52;13.45;;;-1.70;76.20;;;;;;4993018;28;20188;-74
2022/01/14 04:13:44;;;;;;;19.80;12.05;;;-1.70;76.50;;;;;;4993461;28;20698;-74
2022/01/14 04:16:10;;;;;;;25.48;13.10;;;-1.80;76.60;;;;;;4992261;28;20193;-73
2022/01/14 04:18:44;;;;;;;22.23;12.93;;;-1.80;76.60;;;;;;4993588;28;20287;-73
2022/01/14 04:21:12;;;;;;;22.38;12.32;;;-1.80;76.80;;;;;;4992009;28;20244;-74
2022/01/14 04:23:41;;;;;;;18.23;11.25;;;-1.80;76.60;;;;;;4993401;28;20203;-74
2022/01/14 04:26:13;;;;;;;17.77;11.75;;;-1.90;76.70;;;;;;4979547;28;20302;-73
2022/01/14 04:28:40;;;;;;;18.63;11.45;;;-1.90;77.70;;;;;;4976813;28;20196;-73
2022/01/14 04:31:12;;;;;;;23.38;11.77;;;-1.90;76.90;;;;;;4993318;28;20193;-73
2022/01/14 04:33:40;;;;;;;15.55;10.82;;;-2.00;77.20;;;;;;4990183;28;20233;-74
2022/01/14 04:36:10;;;;;;;19.55;12.18;;;-2.10;77.00;;;;;;4973636;28;20236;-73
2022/01/14 04:38:38;;;;;;;23.73;14.50;;;-2.00;77.20;;;;;;4975252;28;20201;-73
2022/01/14 04:41:08;;;;;;;20.35;11.40;;;-2.00;77.00;;;;;;4993237;28;20197;-73
2022/01/14 04:43:36;;;;;;;22.15;13.60;;;-2.10;77.00;;;;;;4991344;28;20283;-74
2022/01/14 04:46:36;;;;;;;26.70;13.57;;;-2.10;77.20;;;;;;4973751;28;20656;-73
2022/01/14 04:49:09;;;;;;;14.88;9.65;;;-2.10;77.10;;;;;;4977199;28;20251;-74
2022/01/14 04:51:39;;;;;;;22.65;11.57;;;-2.10;76.60;;;;;;4992752;28;20734;-74
2022/01/14 04:54:10;;;;;;;16.50;9.70;;;-2.00;76.70;;;;;;4988064;28;20299;-74
2022/01/14 04:56:41;;;;;;;17.98;11.27;;;-2.10;76.50;;;;;;4976025;28;20523;-74
2022/01/14 04:59:09;;;;;;;21.10;10.80;;;-2.10;76.40;;;;;;4993018;28;20542;-73
2022/01/14 05:01:46;;;;;;;24.83;12.02;;;-2.00;76.20;;;;;;4990528;28;20194;-74
2022/01/14 05:04:13;;;;;;;19.67;10.77;;;-2.00;76.40;;;;;;4973129;28;20196;-73
2022/01/14 05:06:44;;;;;;;25.25;13.00;;;-2.00;76.60;;;;;;4974975;28;20189;-74
2022/01/14 05:09:24;;;;;;;20.33;11.35;;;-2.00;76.30;;;;;;4992520;28;20208;-74
2022/01/14 05:11:58;;;;;;;21.20;11.80;;;-1.90;76.30;;;;;;4988744;28;20205;-74
2022/01/14 05:14:26;;;;;;;20.70;12.00;;;-1.90;76.40;;;;;;4972870;28;20227;-74
2022/01/14 05:16:53;;;;;;;26.08;14.68;;;-1.90;76.70;;;;;;4975102;28;20283;-74
2022/01/14 05:19:21;;;;;;;23.10;14.07;;;-2.00;76.10;;;;;;4992248;28;20659;-74
2022/01/14 05:21:48;;;;;;;23.27;13.15;;;-2.00;76.40;;;;;;4991388;28;20221;-74
2022/01/14 05:24:19;;;;;;;25.35;14.30;;;-1.90;76.80;;;;;;4991795;28;20193;-73
2022/01/14 05:26:53;;;;;;;25.27;12.55;;;-2.00;77.10;;;;;;4991916;28;20197;-74
2022/01/14 05:29:30;;;;;;;21.60;12.52;;;-2.00;77.10;;;;;;4992052;28;20203;-73
2022/01/14 05:32:04;;;;;;;23.52;14.48;;;-2.00;76.90;;;;;;4972110;28;20239;-74
2022/01/14 05:34:35;;;;;;;24.38;13.77;;;-2.00;76.30;;;;;;4974329;28;20217;-74
2022/01/14 05:37:05;;;;;;;29.08;16.10;;;-2.00;76.00;;;;;;4991889;28;20207;-73
2022/01/14 05:39:33;;;;;;;29.42;15.73;;;-2.00;75.90;;;;;;4991352;28;20291;-74
2022/01/14 05:42:07;;;;;;;35.10;17.45;;;-2.00;75.60;;;;;;4991899;28;20292;-73
2022/01/14 05:44:37;;;;;;;30.40;16.80;;;-2.00;75.50;;;;;;4991216;28;20192;-74
2022/01/14 05:47:07;;;;;;;34.10;16.20;;;-2.00;75.00;;;;;;4992140;28;20218;-75
2022/01/14 05:49:38;;;;;;;121.05;61.90;;;-2.00;75.10;;;;;;4991435;28;20189;-74
2022/01/14 05:52:06;;;;;;;144.05;68.03;;;-2.00;75.90;;;;;;4991978;28;20553;-73
2022/01/14 05:54:33;;;;;;;69.40;34.30;;;-2.00;75.10;;;;;;4991090;28;20271;-73
2022/01/14 05:57:08;;;;;;;28.25;17.92;;;-2.00;75.00;;;;;;4991752;28;20192;-74
2022/01/14 05:59:40;;;;;;;29.17;16.88;;;-2.10;74.80;;;;;;4991076;28;20196;-74
2022/01/14 06:02:19;;;;;;;26.55;14.23;;;-2.10;74.60;;;;;;4991127;28;20185;-73
2022/01/14 06:04:48;;;;;;;23.85;12.88;;;-2.10;74.40;;;;;;4991775;28;20278;-73
2022/01/14 06:07:16;;;;;;;24.10;13.85;;;-2.10;74.30;;;;;;4991460;28;20703;-74
2022/01/14 06:09:43;;;;;;;34.85;16.40;;;-2.10;74.00;;;;;;4991260;28;20224;-75
2022/01/14 06:12:13;;;;;;;29.92;16.30;;;-2.10;73.70;;;;;;4991390;28;20221;-75
2022/01/14 06:14:45;;;;;;;25.60;14.38;;;-2.10;73.90;;;;;;4991631;28;20263;-73
2022/01/14 06:17:13;;;;;;;24.17;15.38;;;-2.10;74.40;;;;;;4991320;28;20192;-75
2022/01/14 06:19:43;;;;;;;23.70;14.02;;;-2.10;74.50;;;;;;4992245;28;20284;-73
2022/01/14 06:22:13;;;;;;;23.00;15.05;;;-2.20;74.50;;;;;;4990922;28;20221;-74
2022/01/14 06:24:41;;;;;;;24.25;14.07;;;-2.20;74.60;;;;;;4991821;28;20197;-75
2022/01/14 06:27:09;;;;;;;24.15;13.98;;;-2.30;75.70;;;;;;4990882;28;20239;-81
2022/01/14 06:29:38;;;;;;;27.50;14.63;;;-2.30;74.10;;;;;;4972251;28;20629;-73
2022/01/14 06:32:07;;;;;;;28.40;14.35;;;-2.30;75.20;;;;;;4984117;28;20193;-73
2022/01/14 06:34:40;;;;;;;26.60;13.63;;;-2.30;75.40;;;;;;4991465;28;20564;-74
2022/01/14 06:37:11;;;;;;;23.75;13.57;;;-2.30;74.90;;;;;;4991162;28;20643;-74
2022/01/14 06:39:46;;;;;;;22.52;14.13;;;-2.50;75.80;;;;;;4991438;28;20199;-73
2022/01/14 06:42:19;;;;;;;28.40;14.80;;;-2.50;76.40;;;;;;4991904;28;20200;-74
2022/01/14 06:44:53;;;;;;;22.77;14.43;;;-2.50;76.50;;;;;;4993621;28;20223;-73
2022/01/14 06:47:21;;;;;;;23.48;13.95;;;-2.50;76.80;;;;;;4994880;28;20197;-73
2022/01/14 06:49:51;;;;;;;21.42;13.07;;;-2.50;77.20;;;;;;4995217;28;20629;-74
2022/01/14 06:52:21;;;;;;;23.50;14.30;;;-2.50;77.60;;;;;;4994718;28;20181;-73
2022/01/14 06:54:50;;;;;;;30.35;17.40;;;-2.40;77.70;;;;;;4994961;28;20718;-73
2022/01/14 06:57:28;;;;;;;28.42;16.05;;;-2.30;77.30;;;;;;4994789;28;20344;-73
2022/01/14 07:00:00;;;;;;;20.95;13.55;;;-2.30;76.90;;;;;;4995268;28;20559;-73
2022/01/14 07:02:27;;;;;;;25.05;14.75;;;-2.30;76.50;;;;;;4977314;28;20201;-74
2022/01/14 07:05:01;;;;;;;25.40;15.30;;;-2.30;75.70;;;;;;4979601;28;20538;-74
2022/01/14 07:07:33;;;;;;;25.83;15.35;;;-2.30;75.30;;;;;;4992619;28;20276;-74
2022/01/14 07:10:01;;;;;;;33.97;18.25;;;-2.30;76.00;;;;;;4990360;28;20211;-74
2022/01/14 07:12:38;;;;;;;23.00;12.52;;;-2.30;76.50;;;;;;4992346;28;20197;-74
2022/01/14 07:15:14;;;;;;;18.63;11.60;;;-2.30;76.00;;;;;;4993303;28;20240;-74
2022/01/14 07:17:49;;;;;;;18.90;13.15;;;-2.40;74.90;;;;;;4975797;28;20200;-74
2022/01/14 07:20:18;;;;;;;21.63;11.70;;;-2.40;75.20;;;;;;4986558;28;20206;-73
2022/01/14 07:22:50;;;;;;;26.50;15.13;;;-2.30;75.40;;;;;;4984654;28;20225;-73
2022/01/14 07:25:29;;;;;;;31.20;16.45;;;-2.30;75.90;;;;;;4973886;28;20193;-74
2022/01/14 07:28:01;;;;;;;21.77;16.83;;;-2.10;76.90;;;;;;4979042;28;20193;-74
2022/01/14 07:30:30;;;;;;;20.73;13.40;;;-1.80;77.70;;;;;;4974809;28;20198;-74
2022/01/14 07:33:07;;;;;;;25.20;14.50;;;-1.50;78.30;;;;;;4974771;28;20193;-73
2022/01/14 07:35:34;;;;;;;21.92;13.57;;;-1.20;77.10;;;;;;4974525;28;20230;-75
2022/01/14 07:38:04;;;;;;;22.25;12.85;;;-0.90;76.20;;;;;;4992628;28;20189;-74
2022/01/14 07:40:38;;;;;;;17.92;10.20;;;-0.60;74.80;;;;;;4988999;28;20198;-74
2022/01/14 07:43:08;;;;;;;17.60;10.95;;;-0.40;72.90;;;;;;4974860;28;20655;-75
2022/01/14 07:45:37;;;;;;;23.55;12.40;;;-0.10;71.90;;;;;;4982067;28;20252;-74
2022/01/14 07:48:04;;;;;;;17.73;11.95;;;0.20;70.70;;;;;;4974697;28;20596;-74
2022/01/14 07:50:35;;;;;;;29.75;14.32;;;0.40;69.50;;;;;;4976856;28;20190;-76
2022/01/14 07:53:02;;;;;;;25.30;15.20;;;0.80;69.60;;;;;;4974478;28;20194;-74
2022/01/14 07:55:30;;;;;;;21.20;14.38;;;1.20;69.80;;;;;;4976957;28;20232;-74
2022/01/14 07:58:02;;;;;;;23.85;13.15;;;1.40;69.30;;;;;;4974200;28;20253;-74
2022/01/14 08:00:29;;;;;;;20.10;12.45;;;1.60;67.20;;;;;;4991402;28;20200;-74
2022/01/14 08:02:58;;;;;;;21.13;12.15;;;1.80;63.50;;;;;;4991430;28;20675;-74
2022/01/14 08:05:32;;;;;;;19.58;11.82;;;1.90;64.00;;;;;;4983993;28;20272;-74
2022/01/14 08:08:04;;;;;;;20.42;12.65;;;2.10;63.00;;;;;;4988050;28;20193;-74
2022/01/14 08:10:36;;;;;;;20.33;12.50;;;2.10;61.70;;;;;;4984437;28;20255;-75
2022/01/14 08:13:08;;;;;;;23.25;13.10;;;2.10;60.10;;;;;;4973890;28;20256;-75
2022/01/14 08:15:41;;;;;;;20.27;11.52;;;2.20;61.30;;;;;;4977055;28;20651;-74
2022/01/14 08:18:10;;;;;;;15.52;10.38;;;2.30;60.10;;;;;;4973614;28;20273;-74
2022/01/14 08:20:41;;;;;;;20.67;10.85;;;2.30;59.90;;;;;;4982344;28;20528;-74
2022/01/14 08:23:14;;;;;;;21.00;12.38;;;2.30;59.90;;;;;;4991163;28;20224;-78
2022/01/14 08:25:44;;;;;;;14.98;10.40;;;2.30;60.00;;;;;;4991709;28;20605;-75
2022/01/14 08:28:11;;;;;;;12.65;7.72;;;2.20;59.90;;;;;;4985510;28;20189;-74
2022/01/14 08:30:38;;;;;;;14.70;9.65;;;2.10;60.50;;;;;;4973227;28;20627;-74
2022/01/14 08:33:12;;;;;;;13.95;7.78;;;1.90;61.30;;;;;;4975366;28;20276;-74
2022/01/14 08:35:45;;;;;;;13.82;9.00;;;1.90;63.20;;;;;;4974666;28;20220;-75
2022/01/14 08:38:15;;;;;;;14.57;9.23;;;2.00;63.40;;;;;;4989106;28;20188;-74
2022/01/14 08:40:48;;;;;;;14.13;9.85;;;2.20;65.20;;;;;;4987205;28;20220;-75
2022/01/14 08:43:16;;;;;;;14.02;9.27;;;2.70;64.20;;;;;;4974956;28;20642;-74
2022/01/14 08:45:46;;;;;;;13.60;7.93;;;3.20;63.00;;;;;;4991690;28;20189;-74
2022/01/14 08:48:14;;;;;;;14.20;8.40;;;3.70;61.50;;;;;;4991570;28;20449;-76
2022/01/14 08:50:42;;;;;;;14.30;9.00;;;4.10;60.80;;;;;;4993974;28;20189;-74
2022/01/14 08:53:14;;;;;;;10.73;7.45;;;4.70;60.10;;;;;;4992817;28;20666;-75
2022/01/14 08:55:42;;;;;;;14.65;11.00;;;5.10;58.80;;;;;;4994024;28;20235;-74
2022/01/14 08:58:15;;;;;;;9.90;7.63;;;5.50;58.50;;;;;;4993916;28;20268;-74
2022/01/14 09:00:43;;;;;;;10.65;8.20;;;6.00;58.10;;;;;;4994131;28;20564;-76
2022/01/14 09:03:10;;;;;;;13.45;9.25;;;6.30;56.40;;;;;;4994089;28;20200;-74
2022/01/14 09:05:38;;;;;;;14.15;9.40;;;6.80;58.00;;;;;;4993981;28;20239;-74
2022/01/14 09:08:06;;;;;;;11.05;7.97;;;7.30;58.50;;;;;;4994081;28;20207;-74
2022/01/14 09:10:38;;;;;;;14.57;9.20;;;7.70;55.00;;;;;;4993918;28;20676;-75
2022/01/14 09:13:06;;;;;;;13.18;8.60;;;8.10;53.00;;;;;;4994302;28;20267;-74
2022/01/14 09:15:33;;;;;;;13.73;9.10;;;8.50;52.50;;;;;;4994286;28;20626;-74
2022/01/14 09:18:00;;;;;;;13.68;8.80;;;8.60;51.30;;;;;;4994163;28;20193;-75
2022/01/14 09:20:28;;;;;;;14.85;9.18;;;8.60;51.30;;;;;;4994115;28;20193;-74
2022/01/14 09:22:58;;;;;;;14.60;9.57;;;9.00;51.70;;;;;;4993745;28;20729;-75
2022/01/14 09:25:28;;;;;;;14.98;10.85;;;9.60;51.00;;;;;;4993744;28;20200;-72
2022/01/14 09:27:59;;;;;;;18.23;12.65;;;10.10;49.60;;;;;;4993844;28;20205;-72
2022/01/14 09:30:26;;;;;;;25.35;20.52;;;10.50;49.50;;;;;;4993597;28;20621;-72
2022/01/14 09:32:53;;;;;;;20.17;15.02;;;10.90;48.50;;;;;;4993713;28;20592;-72
2022/01/14 09:35:20;;;;;;;20.42;13.57;;;11.20;46.60;;;;;;4993490;28;20217;-72
2022/01/14 09:37:49;;;;;;;29.60;17.95;;;11.50;45.50;;;;;;4993431;28;20337;-72
2022/01/14 09:40:25;;;;;;;24.23;14.57;;;11.70;44.90;;;;;;4993317;28;20196;-72
2022/01/14 09:42:53;;;;;;;13.30;8.60;;;12.00;45.90;;;;;;4993718;28;20204;-73
2022/01/14 09:45:21;;;;;;;11.88;8.45;;;12.40;43.70;;;;;;4993725;28;20743;-72
2022/01/14 09:47:49;;;;;;;17.27;14.55;;;12.70;44.00;;;;;;4993781;28;20192;-73
2022/01/14 09:50:19;;;;;;;19.15;16.63;;;12.90;43.60;;;;;;4993456;28;20189;-72
2022/01/14 09:53:09;;;;;;;13.50;9.38;;;13.20;42.40;;;;;;4993626;28;20200;-73
2022/01/14 09:55:37;;;;;;;16.10;9.73;;;13.50;42.50;;;;;;4993229;28;20692;-72
2022/01/14 09:58:04;;;;;;;13.55;10.13;;;13.90;42.40;;;;;;4993286;28;20196;-72
2022/01/14 10:00:31;;;;;;;11.10;7.70;;;14.20;40.10;;;;;;4993545;28;20208;-73
2022/01/14 10:02:58;;;;;;;10.35;7.50;;;14.60;41.50;;;;;;4993456;28;20193;-72
2022/01/14 10:05:36;;;;;;;10.40;7.87;;;14.90;40.70;;;;;;4993281;28;20193;-72
2022/01/14 10:08:14;;;;;;;10.07;7.60;;;15.20;37.70;;;;;;4993312;28;20439;-73
2022/01/14 10:10:46;;;;;;;8.10;7.03;;;15.40;38.00;;;;;;4993630;28;20448;-71
2022/01/14 10:13:15;;;;;;;10.13;7.70;;;15.60;37.10;;;;;;4993418;28;20436;-72
2022/01/14 10:15:54;;;;;;;11.17;7.33;;;15.80;35.50;;;;;;4993212;28;20490;-74
2022/01/14 10:18:26;;;;;;;10.67;7.67;;;16.10;35.80;;;;;;4993346;28;20974;-73
2022/01/14 10:20:53;;;;;;;14.43;7.80;;;16.30;35.50;;;;;;4996887;28;20441;-73
2022/01/14 10:23:42;;;;;;;9.83;7.87;;;16.40;34.40;;;;;;4996811;28;20819;-72
2022/01/14 10:26:18;;;;;;;9.90;8.00;;;16.40;34.60;;;;;;4996967;28;20444;-73
2022/01/14 10:29:00;;;;;;;10.83;7.60;;;16.50;35.40;;;;;;4996947;28;20475;-73
2022/01/14 10:31:45;;;;;;;11.20;9.50;;;16.50;33.70;;;;;;4996842;28;20491;-73
2022/01/14 10:34:14;;;;;;;13.47;8.57;;;16.60;33.80;;;;;;4996798;28;20467;-73
2022/01/14 10:36:47;;;;;;;9.47;7.53;;;17.00;33.80;;;;;;4996872;28;20982;-73
2022/01/14 10:39:22;;;;;;;10.97;6.77;;;17.00;32.00;;;;;;4996967;28;20452;-72
2022/01/14 10:41:55;;;;;;;11.17;8.90;;;16.80;32.90;;;;;;4997016;28;20490;-73
2022/01/14 10:44:32;;;;;;;10.87;8.23;;;17.20;32.80;;;;;;4996766;28;20446;-73
2022/01/14 10:47:13;;;;;;;14.80;11.13;;;17.50;31.20;;;;;;4996678;28;20439;-73
2022/01/14 10:49:46;;;;;;;31.07;20.93;;;17.60;33.20;;;;;;4996419;28;20506;-72
2022/01/14 10:52:18;;;;;;;12.77;9.30;;;18.00;33.30;;;;;;4996351;28;20444;-72
2022/01/14 10:54:58;;;;;;;18.00;14.40;;;18.40;31.00;;;;;;4996367;28;20444;-73
2022/01/14 10:57:28;;;;;;;26.87;19.97;;;18.50;31.70;;;;;;4996461;28;20440;-73
2022/01/14 11:00:15;;;;;;;7.23;5.63;;;18.90;30.50;;;;;;4996529;28;21052;-73
2022/01/14 11:02:45;;;;;;;9.27;5.27;;;19.20;30.70;;;;;;4996380;28;20443;-73
2022/01/14 11:05:18;;;;;;;6.67;4.77;;;19.60;30.00;;;;;;4996370;28;20451;-72
2022/01/14 11:07:52;;;;;;;5.53;4.60;;;19.70;28.90;;;;;;4996104;28;20518;-73
2022/01/14 11:10:34;;;;;;;5.33;4.00;;;19.80;29.20;;;;;;4996071;28;20443;-73
2022/01/14 11:13:11;;;;;;;10.63;4.00;;;20.10;29.10;;;;;;4996225;28;20436;-72
2022/01/14 11:15:43;;;;;;;5.40;3.37;;;20.50;27.10;;;;;;4996140;28;20491;-72
2022/01/14 11:18:15;;;;;;;5.07;3.87;;;20.60;27.90;;;;;;4995943;28;20444;-73
2022/01/14 11:23:34;;;;;;;5.40;3.57;;;21.00;28.30;;;;;;4995610;28;20963;-73
2022/01/14 11:26:11;;;;;;;4.40;3.30;;;21.20;27.70;;;;;;4995603;28;20850;-73
2022/01/14 11:28:45;;;;;;;5.20;3.00;;;20.70;25.70;;;;;;4995578;28;20443;-73
2022/01/14 11:31:26;;;;;;;4.57;2.30;;;20.90;26.90;;;;;;4994466;28;20436;-73
2022/01/14 11:33:56;;;;;;;5.20;3.90;;;21.20;25.80;;;;;;4995864;28;20444;-72
2022/01/14 11:36:23;;;;;;;5.70;4.33;;;21.40;25.80;;;;;;4995724;28;20926;-73
2022/01/14 11:38:55;;;;;;;4.83;3.27;;;21.20;24.80;;;;;;4995660;28;20498;-73
2022/01/14 11:41:58;;;;;;;3.30;2.90;;;20.90;25.10;;;;;;4995786;28;20441;-73
2022/01/14 11:44:52;;;;;;;4.20;2.83;;;20.80;25.30;;;;;;4995632;28;20447;-72
2022/01/14 11:47:52;;;;;;;3.73;2.10;;;20.80;25.80;;;;;;4995525;28;20435;-73
2022/01/14 11:50:46;;;;;;;4.00;2.20;;;20.60;26.20;;;;;;4995623;28;20444;-73
2022/01/14 11:53:33;;;;;;;3.67;2.40;;;20.60;25.90;;;;;;4985811;28;20451;-74
2022/01/14 11:56:00;;;;;;;3.20;2.50;;;20.20;25.40;;;;;;4995367;28;20523;-73
2022/01/14 11:58:27;;;;;;;5.90;3.50;;;20.40;26.70;;;;;;4995281;28;20440;-73
2022/01/14 12:00:56;;;;;;;5.30;3.40;;;20.70;25.90;;;;;;4995433;28;20444;-73
2022/01/14 12:03:29;;;;;;;6.20;4.77;;;20.50;26.00;;;;;;4995309;28;20503;-73
2022/01/14 12:06:06;;;;;;;5.17;3.20;;;20.30;26.30;;;;;;4995155;28;20510;-73
2022/01/14 12:08:39;;;;;;;5.03;3.43;;;20.00;26.60;;;;;;4995244;28;20443;-74
2022/01/14 12:11:24;;;;;;;5.13;3.70;;;20.30;26.60;;;;;;4995173;28;20452;-73
2022/01/14 12:13:58;;;;;;;5.60;3.50;;;20.20;26.40;;;;;;4992929;28;20934;-73
2022/01/14 12:19:21;;;;;;;3.30;2.43;;;19.90;25.80;;;;;;4994653;28;20435;-72
2022/01/14 12:22:14;;;;;;;8.10;3.00;;;19.70;25.90;;;;;;4982147;28;21026;-73
2022/01/14 12:24:53;;;;;;;4.70;2.70;;;19.90;26.70;;;;;;4975198;28;20527;-72
2022/01/14 12:27:46;;;;;;;4.90;2.70;;;19.90;25.60;;;;;;4988598;28;20440;-73
2022/01/14 12:30:27;;;;;;;8.03;2.60;;;19.30;25.80;;;;;;4992781;28;20436;-74
2022/01/14 12:32:56;;;;;;;4.90;3.37;;;19.20;26.20;;;;;;4984164;28;20433;-73
2022/01/14 12:35:35;;;;;;;3.70;2.70;;;19.00;26.00;;;;;;4975358;28;20477;-73
2022/01/14 12:38:02;;;;;;;7.50;4.60;;;18.80;26.50;;;;;;4978463;28;20447;-73
2022/01/14 12:40:37;;;;;;;5.30;3.60;;;18.90;27.40;;;;;;4990777;28;20476;-75
2022/01/14 12:43:06;;;;;;;4.40;2.90;;;19.30;26.70;;;;;;4974586;28;20437;-73
2022/01/14 12:46:03;;;;;;;5.40;2.90;;;19.30;26.70;;;;;;4989760;28;20764;-73
2022/01/14 12:48:46;;;;;;;4.60;2.90;;;19.40;26.50;;;;;;4994333;28;20455;-73
2022/01/14 12:51:16;;;;;;;4.53;2.90;;;19.60;27.00;;;;;;4968896;28;20441;-73
2022/01/14 12:53:51;;;;;;;6.63;3.90;;;19.60;26.50;;;;;;4974589;28;20433;-75
2022/01/14 12:56:19;;;;;;;8.13;3.47;;;19.60;26.50;;;;;;4966903;28;20543;-73
2022/01/14 12:58:59;;;;;;;7.30;3.80;;;19.50;26.70;;;;;;4974816;28;20843;-76
2022/01/14 13:01:31;;;;;;;5.97;3.70;;;19.50;27.10;;;;;;4955663;29;20442;-73
2022/01/14 13:04:02;;;;;;;5.40;3.33;;;19.40;26.80;;;;;;4957210;28;20437;-73
2022/01/14 13:06:29;;;;;;;6.30;3.43;;;19.20;27.10;;;;;;4994047;28;20526;-73
2022/01/14 13:09:04;;;;;;;5.00;3.00;;;19.00;27.50;;;;;;4993422;28;20440;-73
2022/01/14 13:11:31;;;;;;;5.10;3.30;;;18.50;28.00;;;;;;4992908;28;20444;-73